sensor_id;sensor_type;location;lat;lon;timestamp;temperature;humidity
27795;DHT22;15176;50.844;4.412;2023-03-14T00:01:53;13.20;99.90
27795;DHT22;15176;50.844;4.412;2023-03-14T00:04:19;13.00;99.90
27795;DHT22;15176;50.844;4.412;2023-03-14T00:06:45;12.70;99.90
27795;DHT22;15176;50.844;4.412;2023-03-14T00:09:13;12.50;99.90
27795;DHT22;15176;50.844;4.412;2023-03-14T00:11:40;12.50;99.90
27795;DHT22;15176;50.844;4.412;2023-03-14T00:14:07;12.60;99.90
27795;DHT22;15176;50.844;4.412;2023-03-14T00:16:34;12.60;99.90
27795;DHT22;15176;50.844;4.412;2023-03-14T00:19:00;12.60;99.90
27795;DHT22;15176;50.844;4.412;2023-03-14T00:21:29;12.60;99.90
27795;DHT22;15176;50.844;4.412;2023-03-14T00:23:55;12.50;99.90
27795;DHT22;15176;50.844;4.412;2023-03-14T00:26:21;12.60;99.90
27795;DHT22;15176;50.844;4.412;2023-03-14T00:28:50;12.50;99.90
27795;DHT22;15176;50.844;4.412;2023-03-14T00:31:16;12.40;99.90
27795;DHT22;15176;50.844;4.412;2023-03-14T00:33:43;12.30;99.90
27795;DHT22;15176;50.844;4.412;2023-03-14T00:36:12;12.50;99.90
27795;DHT22;15176;50.844;4.412;2023-03-14T00:38:39;12.50;99.90
27795;DHT22;15176;50.844;4.412;2023-03-14T00:41:08;12.70;99.90
27795;DHT22;15176;50.844;4.412;2023-03-14T00:43:35;12.70;99.90
27795;DHT22;15176;50.844;4.412;2023-03-14T00:46:00;13.00;99.90
27795;DHT22;15176;50.844;4.412;2023-03-14T00:48:27;12.90;99.90
27795;DHT22;15176;50.844;4.412;2023-03-14T00:50:52;12.70;99.90
27795;DHT22;15176;50.844;4.412;2023-03-14T00:53:18;12.60;99.90
27795;DHT22;15176;50.844;4.412;2023-03-14T00:55:44;12.50;99.90
27795;DHT22;15176;50.844;4.412;2023-03-14T00:58:12;12.60;99.90
27795;DHT22;15176;50.844;4.412;2023-03-14T01:00:38;12.40;99.90
27795;DHT22;15176;50.844;4.412;2023-03-14T01:03:04;12.60;99.90
27795;DHT22;15176;50.844;4.412;2023-03-14T01:05:29;12.50;99.90
27795;DHT22;15176;50.844;4.412;2023-03-14T01:08:00;12.40;99.90
27795;DHT22;15176;50.844;4.412;2023-03-14T01:10:26;12.50;99.90
27795;DHT22;15176;50.844;4.412;2023-03-14T01:12:52;12.60;99.90
27795;DHT22;15176;50.844;4.412;2023-03-14T01:15:20;12.60;99.90
27795;DHT22;15176;50.844;4.412;2023-03-14T01:17:46;12.50;99.90
27795;DHT22;15176;50.844;4.412;2023-03-14T01:20:14;12.60;99.90
27795;DHT22;15176;50.844;4.412;2023-03-14T01:22:41;12.50;99.90
27795;DHT22;15176;50.844;4.412;2023-03-14T01:25:10;12.30;99.90
27795;DHT22;15176;50.844;4.412;2023-03-14T01:27:37;12.40;99.90
27795;DHT22;15176;50.844;4.412;2023-03-14T01:30:04;12.50;99.90
27795;DHT22;15176;50.844;4.412;2023-03-14T01:32:30;12.50;99.90
27795;DHT22;15176;50.844;4.412;2023-03-14T01:34:56;12.50;99.90
27795;DHT22;15176;50.844;4.412;2023-03-14T01:37:22;12.50;99.90
27795;DHT22;15176;50.844;4.412;2023-03-14T01:39:47;12.50;99.90
27795;DHT22;15176;50.844;4.412;2023-03-14T01:42:14;12.30;99.90
27795;DHT22;15176;50.844;4.412;2023-03-14T01:44:53;12.40;99.90
27795;DHT22;15176;50.844;4.412;2023-03-14T01:47:20;12.30;99.90
27795;DHT22;15176;50.844;4.412;2023-03-14T01:49:48;12.20;99.90
27795;DHT22;15176;50.844;4.412;2023-03-14T01:52:39;12.10;99.90
27795;DHT22;15176;50.844;4.412;2023-03-14T01:55:13;12.10;99.90
27795;DHT22;15176;50.844;4.412;2023-03-14T01:57:46;12.00;99.90
27795;DHT22;15176;50.844;4.412;2023-03-14T02:00:16;12.00;99.90
27795;DHT22;15176;50.844;4.412;2023-03-14T02:02:51;12.00;99.90
27795;DHT22;15176;50.844;4.412;2023-03-14T02:05:28;12.00;99.90
27795;DHT22;15176;50.844;4.412;2023-03-14T02:07:59;11.50;99.90
27795;DHT22;15176;50.844;4.412;2023-03-14T02:10:27;11.60;99.90
27795;DHT22;15176;50.844;4.412;2023-03-14T02:12:56;11.40;99.90
27795;DHT22;15176;50.844;4.412;2023-03-14T02:15:22;11.10;99.90
27795;DHT22;15176;50.844;4.412;2023-03-14T02:17:48;11.00;99.90
27795;DHT22;15176;50.844;4.412;2023-03-14T02:22:49;11.50;99.90
27795;DHT22;15176;50.844;4.412;2023-03-14T02:28:06;11.80;99.90
27795;DHT22;15176;50.844;4.412;2023-03-14T02:30:32;11.80;99.90
27795;DHT22;15176;50.844;4.412;2023-03-14T02:33:19;12.10;99.90
27795;DHT22;15176;50.844;4.412;2023-03-14T02:36:02;11.90;99.90
27795;DHT22;15176;50.844;4.412;2023-03-14T02:41:26;11.90;99.90
27795;DHT22;15176;50.844;4.412;2023-03-14T02:43:52;12.00;99.90
27795;DHT22;15176;50.844;4.412;2023-03-14T02:46:19;12.00;99.90
27795;DHT22;15176;50.844;4.412;2023-03-14T02:48:53;11.70;99.90
27795;DHT22;15176;50.844;4.412;2023-03-14T02:51:21;11.50;99.90
27795;DHT22;15176;50.844;4.412;2023-03-14T02:53:48;11.60;99.90
27795;DHT22;15176;50.844;4.412;2023-03-14T02:56:13;11.10;99.90
27795;DHT22;15176;50.844;4.412;2023-03-14T02:58:39;11.10;99.90
27795;DHT22;15176;50.844;4.412;2023-03-14T03:01:05;11.00;99.90
27795;DHT22;15176;50.844;4.412;2023-03-14T03:03:31;11.10;99.90
27795;DHT22;15176;50.844;4.412;2023-03-14T03:05:57;11.00;99.90
27795;DHT22;15176;50.844;4.412;2023-03-14T03:08:24;11.00;99.90
27795;DHT22;15176;50.844;4.412;2023-03-14T03:10:52;11.30;99.90
27795;DHT22;15176;50.844;4.412;2023-03-14T03:13:19;11.60;99.90
27795;DHT22;15176;50.844;4.412;2023-03-14T03:15:45;11.40;99.90
27795;DHT22;15176;50.844;4.412;2023-03-14T03:18:11;11.30;99.90
27795;DHT22;15176;50.844;4.412;2023-03-14T03:20:37;11.40;99.90
27795;DHT22;15176;50.844;4.412;2023-03-14T03:23:03;11.50;99.90
27795;DHT22;15176;50.844;4.412;2023-03-14T03:25:30;11.50;99.90
27795;DHT22;15176;50.844;4.412;2023-03-14T03:27:56;11.60;99.90
27795;DHT22;15176;50.844;4.412;2023-03-14T03:30:23;11.70;99.90
27795;DHT22;15176;50.844;4.412;2023-03-14T03:32:49;11.70;99.90
27795;DHT22;15176;50.844;4.412;2023-03-14T03:35:14;11.60;99.90
27795;DHT22;15176;50.844;4.412;2023-03-14T03:37:40;11.70;99.90
27795;DHT22;15176;50.844;4.412;2023-03-14T03:40:07;11.40;99.90
27795;DHT22;15176;50.844;4.412;2023-03-14T03:42:34;11.40;99.90
27795;DHT22;15176;50.844;4.412;2023-03-14T03:45:00;11.50;99.90
27795;DHT22;15176;50.844;4.412;2023-03-14T03:47:26;11.30;99.90
27795;DHT22;15176;50.844;4.412;2023-03-14T03:49:52;11.40;99.90
27795;DHT22;15176;50.844;4.412;2023-03-14T03:52:18;11.30;99.90
27795;DHT22;15176;50.844;4.412;2023-03-14T03:54:45;11.40;99.90
27795;DHT22;15176;50.844;4.412;2023-03-14T03:57:10;11.70;99.90
27795;DHT22;15176;50.844;4.412;2023-03-14T03:59:36;11.80;99.90
27795;DHT22;15176;50.844;4.412;2023-03-14T04:02:04;12.00;99.90
27795;DHT22;15176;50.844;4.412;2023-03-14T04:04:29;12.00;99.90
27795;DHT22;15176;50.844;4.412;2023-03-14T04:06:55;12.10;99.90
27795;DHT22;15176;50.844;4.412;2023-03-14T04:09:21;12.50;99.90
27795;DHT22;15176;50.844;4.412;2023-03-14T04:11:46;12.20;99.90
27795;DHT22;15176;50.844;4.412;2023-03-14T04:14:12;12.20;99.90
27795;DHT22;15176;50.844;4.412;2023-03-14T04:16:38;12.20;99.90
27795;DHT22;15176;50.844;4.412;2023-03-14T04:19:03;12.20;99.90
27795;DHT22;15176;50.844;4.412;2023-03-14T04:21:29;12.10;99.90
27795;DHT22;15176;50.844;4.412;2023-03-14T04:23:55;12.30;99.90
27795;DHT22;15176;50.844;4.412;2023-03-14T04:26:20;12.30;99.90
27795;DHT22;15176;50.844;4.412;2023-03-14T04:28:46;12.30;99.90
27795;DHT22;15176;50.844;4.412;2023-03-14T04:31:17;12.20;99.90
27795;DHT22;15176;50.844;4.412;2023-03-14T04:33:44;12.20;99.90
27795;DHT22;15176;50.844;4.412;2023-03-14T04:36:10;12.30;99.90
27795;DHT22;15176;50.844;4.412;2023-03-14T04:38:36;12.10;99.90
27795;DHT22;15176;50.844;4.412;2023-03-14T04:41:03;12.10;99.90
27795;DHT22;15176;50.844;4.412;2023-03-14T04:43:29;12.00;99.90
27795;DHT22;15176;50.844;4.412;2023-03-14T04:45:56;12.10;99.90
27795;DHT22;15176;50.844;4.412;2023-03-14T04:48:23;12.00;99.90
27795;DHT22;15176;50.844;4.412;2023-03-14T04:50:49;11.90;99.90
27795;DHT22;15176;50.844;4.412;2023-03-14T04:53:17;12.00;99.90
27795;DHT22;15176;50.844;4.412;2023-03-14T04:55:47;12.10;99.90
27795;DHT22;15176;50.844;4.412;2023-03-14T04:58:13;12.00;99.90
27795;DHT22;15176;50.844;4.412;2023-03-14T05:00:39;11.80;99.90
27795;DHT22;15176;50.844;4.412;2023-03-14T05:03:05;11.70;99.90
27795;DHT22;15176;50.844;4.412;2023-03-14T05:05:30;11.70;99.90
27795;DHT22;15176;50.844;4.412;2023-03-14T05:07:56;11.70;99.90
27795;DHT22;15176;50.844;4.412;2023-03-14T05:10:22;11.70;99.90
27795;DHT22;15176;50.844;4.412;2023-03-14T05:12:47;11.80;99.90
27795;DHT22;15176;50.844;4.412;2023-03-14T05:15:13;11.80;99.90
27795;DHT22;15176;50.844;4.412;2023-03-14T05:17:40;11.80;99.90
27795;DHT22;15176;50.844;4.412;2023-03-14T05:20:06;11.60;99.90
27795;DHT22;15176;50.844;4.412;2023-03-14T05:22:38;11.40;99.90
27795;DHT22;15176;50.844;4.412;2023-03-14T05:25:05;11.60;99.90
27795;DHT22;15176;50.844;4.412;2023-03-14T05:27:31;11.50;99.90
27795;DHT22;15176;50.844;4.412;2023-03-14T05:29:57;11.60;99.90
27795;DHT22;15176;50.844;4.412;2023-03-14T05:32:22;11.60;99.90
27795;DHT22;15176;50.844;4.412;2023-03-14T05:34:48;11.90;99.90
27795;DHT22;15176;50.844;4.412;2023-03-14T05:37:14;11.90;99.90
27795;DHT22;15176;50.844;4.412;2023-03-14T05:39:40;11.80;99.90
27795;DHT22;15176;50.844;4.412;2023-03-14T05:42:07;11.70;99.90
27795;DHT22;15176;50.844;4.412;2023-03-14T05:44:32;11.70;99.90
27795;DHT22;15176;50.844;4.412;2023-03-14T05:46:58;11.60;99.90
27795;DHT22;15176;50.844;4.412;2023-03-14T05:49:24;11.80;99.90
27795;DHT22;15176;50.844;4.412;2023-03-14T05:51:51;12.00;99.90
27795;DHT22;15176;50.844;4.412;2023-03-14T05:54:16;11.90;99.90
27795;DHT22;15176;50.844;4.412;2023-03-14T05:56:42;11.90;99.90
27795;DHT22;15176;50.844;4.412;2023-03-14T05:59:08;11.60;99.90
27795;DHT22;15176;50.844;4.412;2023-03-14T06:01:34;11.60;99.90
27795;DHT22;15176;50.844;4.412;2023-03-14T06:04:00;11.50;99.90
27795;DHT22;15176;50.844;4.412;2023-03-14T06:06:27;11.70;99.90
27795;DHT22;15176;50.844;4.412;2023-03-14T06:08:52;11.90;99.90
27795;DHT22;15176;50.844;4.412;2023-03-14T06:11:18;11.80;99.90
27795;DHT22;15176;50.844;4.412;2023-03-14T06:13:44;11.80;99.90
27795;DHT22;15176;50.844;4.412;2023-03-14T06:16:10;11.70;99.90
27795;DHT22;15176;50.844;4.412;2023-03-14T06:18:36;11.60;99.90
27795;DHT22;15176;50.844;4.412;2023-03-14T06:21:01;11.60;99.90
27795;DHT22;15176;50.844;4.412;2023-03-14T06:23:27;11.70;99.90
27795;DHT22;15176;50.844;4.412;2023-03-14T06:25:53;11.50;99.90
27795;DHT22;15176;50.844;4.412;2023-03-14T06:28:18;11.50;99.90
27795;DHT22;15176;50.844;4.412;2023-03-14T06:30:44;11.50;99.90
27795;DHT22;15176;50.844;4.412;2023-03-14T06:33:10;11.70;99.90
27795;DHT22;15176;50.844;4.412;2023-03-14T06:35:36;11.70;99.90
27795;DHT22;15176;50.844;4.412;2023-03-14T06:38:02;11.80;99.90
27795;DHT22;15176;50.844;4.412;2023-03-14T06:40:27;11.60;99.90
27795;DHT22;15176;50.844;4.412;2023-03-14T06:42:55;11.80;99.90
27795;DHT22;15176;50.844;4.412;2023-03-14T06:45:21;11.70;99.90
27795;DHT22;15176;50.844;4.412;2023-03-14T06:47:47;11.70;99.90
27795;DHT22;15176;50.844;4.412;2023-03-14T06:50:13;11.70;99.90
27795;DHT22;15176;50.844;4.412;2023-03-14T06:52:38;11.70;99.90
27795;DHT22;15176;50.844;4.412;2023-03-14T06:55:16;11.40;99.90
27795;DHT22;15176;50.844;4.412;2023-03-14T06:57:44;11.10;99.90
27795;DHT22;15176;50.844;4.412;2023-03-14T07:00:11;11.30;99.90
27795;DHT22;15176;50.844;4.412;2023-03-14T07:02:37;11.10;99.90
27795;DHT22;15176;50.844;4.412;2023-03-14T07:05:03;11.00;99.90
27795;DHT22;15176;50.844;4.412;2023-03-14T07:07:29;11.00;99.90
27795;DHT22;15176;50.844;4.412;2023-03-14T07:09:55;10.50;99.90
27795;DHT22;15176;50.844;4.412;2023-03-14T07:12:22;10.50;99.90
27795;DHT22;15176;50.844;4.412;2023-03-14T07:14:48;10.90;99.90
27795;DHT22;15176;50.844;4.412;2023-03-14T07:17:13;10.70;99.90
27795;DHT22;15176;50.844;4.412;2023-03-14T07:19:39;10.30;99.90
27795;DHT22;15176;50.844;4.412;2023-03-14T07:22:06;10.00;99.90
27795;DHT22;15176;50.844;4.412;2023-03-14T07:24:34;9.90;99.90
27795;DHT22;15176;50.844;4.412;2023-03-14T07:27:00;9.70;99.90
27795;DHT22;15176;50.844;4.412;2023-03-14T07:29:25;9.90;99.90
27795;DHT22;15176;50.844;4.412;2023-03-14T07:31:51;10.20;99.90
27795;DHT22;15176;50.844;4.412;2023-03-14T07:34:17;10.30;99.90
27795;DHT22;15176;50.844;4.412;2023-03-14T07:36:43;10.20;99.90
27795;DHT22;15176;50.844;4.412;2023-03-14T07:39:09;10.00;99.90
27795;DHT22;15176;50.844;4.412;2023-03-14T07:41:38;9.90;99.90
27795;DHT22;15176;50.844;4.412;2023-03-14T07:44:08;10.10;99.90
27795;DHT22;15176;50.844;4.412;2023-03-14T07:46:34;10.10;99.90
27795;DHT22;15176;50.844;4.412;2023-03-14T07:49:04;10.30;99.90
27795;DHT22;15176;50.844;4.412;2023-03-14T07:51:30;10.60;99.90
27795;DHT22;15176;50.844;4.412;2023-03-14T07:53:56;10.90;99.90
27795;DHT22;15176;50.844;4.412;2023-03-14T07:56:22;11.20;99.90
27795;DHT22;15176;50.844;4.412;2023-03-14T07:58:47;10.70;99.90
27795;DHT22;15176;50.844;4.412;2023-03-14T08:01:16;10.50;99.90
27795;DHT22;15176;50.844;4.412;2023-03-14T08:03:42;10.60;99.90
27795;DHT22;15176;50.844;4.412;2023-03-14T08:06:08;11.00;99.90
27795;DHT22;15176;50.844;4.412;2023-03-14T08:08:34;10.90;99.90
27795;DHT22;15176;50.844;4.412;2023-03-14T08:11:07;11.20;99.90
27795;DHT22;15176;50.844;4.412;2023-03-14T08:13:37;11.40;99.90
27795;DHT22;15176;50.844;4.412;2023-03-14T08:16:03;11.50;99.90
27795;DHT22;15176;50.844;4.412;2023-03-14T08:18:29;11.40;99.90
27795;DHT22;15176;50.844;4.412;2023-03-14T08:20:55;11.20;99.90
27795;DHT22;15176;50.844;4.412;2023-03-14T08:23:21;11.20;99.90
27795;DHT22;15176;50.844;4.412;2023-03-14T08:25:51;10.80;99.90
27795;DHT22;15176;50.844;4.412;2023-03-14T08:28:17;11.20;99.90
27795;DHT22;15176;50.844;4.412;2023-03-14T08:30:44;10.70;99.90
27795;DHT22;15176;50.844;4.412;2023-03-14T08:33:09;10.30;99.90
27795;DHT22;15176;50.844;4.412;2023-03-14T08:35:37;10.10;99.90
27795;DHT22;15176;50.844;4.412;2023-03-14T08:38:04;10.40;99.90
27795;DHT22;15176;50.844;4.412;2023-03-14T08:40:30;10.40;99.90
27795;DHT22;15176;50.844;4.412;2023-03-14T08:42:59;10.30;99.90
27795;DHT22;15176;50.844;4.412;2023-03-14T08:45:25;10.10;99.90
27795;DHT22;15176;50.844;4.412;2023-03-14T08:47:51;10.40;99.90
27795;DHT22;15176;50.844;4.412;2023-03-14T08:50:16;10.00;99.90
27795;DHT22;15176;50.844;4.412;2023-03-14T08:52:45;10.00;99.90
27795;DHT22;15176;50.844;4.412;2023-03-14T08:55:11;9.80;99.90
27795;DHT22;15176;50.844;4.412;2023-03-14T08:57:37;9.80;99.90
27795;DHT22;15176;50.844;4.412;2023-03-14T09:00:05;9.50;99.90
27795;DHT22;15176;50.844;4.412;2023-03-14T09:02:37;9.20;99.90
27795;DHT22;15176;50.844;4.412;2023-03-14T09:05:04;9.50;99.90
27795;DHT22;15176;50.844;4.412;2023-03-14T09:07:30;9.50;99.90
27795;DHT22;15176;50.844;4.412;2023-03-14T09:09:55;9.20;99.90
27795;DHT22;15176;50.844;4.412;2023-03-14T09:12:21;9.30;99.90
27795;DHT22;15176;50.844;4.412;2023-03-14T09:14:47;9.30;99.90
27795;DHT22;15176;50.844;4.412;2023-03-14T09:17:13;9.80;99.90
27795;DHT22;15176;50.844;4.412;2023-03-14T09:19:39;9.60;99.90
27795;DHT22;15176;50.844;4.412;2023-03-14T09:22:04;9.60;99.90
27795;DHT22;15176;50.844;4.412;2023-03-14T09:24:30;9.50;99.90
27795;DHT22;15176;50.844;4.412;2023-03-14T09:26:56;9.50;99.90
27795;DHT22;15176;50.844;4.412;2023-03-14T09:29:22;9.60;99.90
27795;DHT22;15176;50.844;4.412;2023-03-14T09:31:48;9.80;99.90
27795;DHT22;15176;50.844;4.412;2023-03-14T09:34:23;9.60;99.90
27795;DHT22;15176;50.844;4.412;2023-03-14T09:36:49;9.50;99.90
27795;DHT22;15176;50.844;4.412;2023-03-14T09:39:15;9.50;99.90
27795;DHT22;15176;50.844;4.412;2023-03-14T09:41:45;9.90;99.90
27795;DHT22;15176;50.844;4.412;2023-03-14T09:44:31;9.80;99.90
27795;DHT22;15176;50.844;4.412;2023-03-14T09:47:00;9.50;99.90
27795;DHT22;15176;50.844;4.412;2023-03-14T09:49:32;9.60;99.90
27795;DHT22;15176;50.844;4.412;2023-03-14T09:52:01;9.70;99.90
27795;DHT22;15176;50.844;4.412;2023-03-14T09:54:47;10.10;99.90
27795;DHT22;15176;50.844;4.412;2023-03-14T09:57:20;9.90;99.90
27795;DHT22;15176;50.844;4.412;2023-03-14T09:59:48;9.60;99.90
27795;DHT22;15176;50.844;4.412;2023-03-14T10:02:23;9.60;99.90
27795;DHT22;15176;50.844;4.412;2023-03-14T10:04:53;9.70;99.90
27795;DHT22;15176;50.844;4.412;2023-03-14T10:07:32;9.60;99.90
27795;DHT22;15176;50.844;4.412;2023-03-14T10:10:20;9.60;99.90
27795;DHT22;15176;50.844;4.412;2023-03-14T10:12:54;9.50;99.90
27795;DHT22;15176;50.844;4.412;2023-03-14T10:15:30;9.40;99.90
27795;DHT22;15176;50.844;4.412;2023-03-14T10:17:59;9.70;99.90
27795;DHT22;15176;50.844;4.412;2023-03-14T10:20:39;9.30;99.90
27795;DHT22;15176;50.844;4.412;2023-03-14T10:23:21;9.40;99.90
27795;DHT22;15176;50.844;4.412;2023-03-14T10:26:12;9.60;99.90
27795;DHT22;15176;50.844;4.412;2023-03-14T10:28:47;9.00;99.90
27795;DHT22;15176;50.844;4.412;2023-03-14T10:31:14;8.60;99.90
27795;DHT22;15176;50.844;4.412;2023-03-14T10:34:00;8.60;99.90
27795;DHT22;15176;50.844;4.412;2023-03-14T10:36:32;9.00;99.90
27795;DHT22;15176;50.844;4.412;2023-03-14T10:39:23;9.00;99.90
27795;DHT22;15176;50.844;4.412;2023-03-14T10:41:54;9.30;99.90
27795;DHT22;15176;50.844;4.412;2023-03-14T10:44:24;9.70;99.90
27795;DHT22;15176;50.844;4.412;2023-03-14T10:47:04;9.70;99.90
27795;DHT22;15176;50.844;4.412;2023-03-14T10:52:57;10.20;99.90
27795;DHT22;15176;50.844;4.412;2023-03-14T10:55:26;9.80;99.90
27795;DHT22;15176;50.844;4.412;2023-03-14T10:57:52;9.70;99.90
27795;DHT22;15176;50.844;4.412;2023-03-14T11:00:22;9.80;99.90
27795;DHT22;15176;50.844;4.412;2023-03-14T11:03:11;10.10;99.90
27795;DHT22;15176;50.844;4.412;2023-03-14T11:08:15;9.60;99.90
27795;DHT22;15176;50.844;4.412;2023-03-14T11:10:54;9.40;99.90
27795;DHT22;15176;50.844;4.412;2023-03-14T11:13:50;9.50;99.90
27795;DHT22;15176;50.844;4.412;2023-03-14T11:30:17;8.60;99.90
27795;DHT22;15176;50.844;4.412;2023-03-14T11:35:41;9.30;99.90
27795;DHT22;15176;50.844;4.412;2023-03-14T11:41:27;8.80;99.90
27795;DHT22;15176;50.844;4.412;2023-03-14T11:44:02;8.80;99.90
27795;DHT22;15176;50.844;4.412;2023-03-14T11:46:55;8.60;99.90
27795;DHT22;15176;50.844;4.412;2023-03-14T11:52:01;8.10;99.90
27795;DHT22;15176;50.844;4.412;2023-03-14T11:57:03;8.60;99.90
27795;DHT22;15176;50.844;4.412;2023-03-14T12:02:33;8.60;99.90
27795;DHT22;15176;50.844;4.412;2023-03-14T12:05:39;8.40;99.90
27795;DHT22;15176;50.844;4.412;2023-03-14T12:10:51;7.70;99.90
27795;DHT22;15176;50.844;4.412;2023-03-14T12:13:18;7.80;99.90
27795;DHT22;15176;50.844;4.412;2023-03-14T12:15:56;8.10;99.90
27795;DHT22;15176;50.844;4.412;2023-03-14T12:18:29;8.50;99.90
27795;DHT22;15176;50.844;4.412;2023-03-14T12:21:11;8.60;99.90
27795;DHT22;15176;50.844;4.412;2023-03-14T12:31:38;8.40;99.90
27795;DHT22;15176;50.844;4.412;2023-03-14T12:34:26;8.10;99.90
27795;DHT22;15176;50.844;4.412;2023-03-14T12:46:14;8.90;99.90
27795;DHT22;15176;50.844;4.412;2023-03-14T12:48:43;9.30;99.90
27795;DHT22;15176;50.844;4.412;2023-03-14T12:51:18;9.30;99.90
27795;DHT22;15176;50.844;4.412;2023-03-14T12:54:26;9.20;99.90
27795;DHT22;15176;50.844;4.412;2023-03-14T13:12:55;8.80;99.90
27795;DHT22;15176;50.844;4.412;2023-03-14T13:18:07;9.10;99.90
27795;DHT22;15176;50.844;4.412;2023-03-14T13:20:42;9.80;99.90
27795;DHT22;15176;50.844;4.412;2023-03-14T13:23:24;10.00;99.90
27795;DHT22;15176;50.844;4.412;2023-03-14T13:25:50;9.80;99.90
27795;DHT22;15176;50.844;4.412;2023-03-14T13:28:17;9.70;99.90
27795;DHT22;15176;50.844;4.412;2023-03-14T13:31:00;9.30;99.90
27795;DHT22;15176;50.844;4.412;2023-03-14T13:33:26;9.20;99.90
27795;DHT22;15176;50.844;4.412;2023-03-14T13:38:32;9.30;99.90
27795;DHT22;15176;50.844;4.412;2023-03-14T13:40:59;9.50;99.90
27795;DHT22;15176;50.844;4.412;2023-03-14T13:43:30;9.30;99.90
27795;DHT22;15176;50.844;4.412;2023-03-14T13:46:04;9.80;99.90
27795;DHT22;15176;50.844;4.412;2023-03-14T13:48:47;10.30;99.90
27795;DHT22;15176;50.844;4.412;2023-03-14T13:51:16;10.60;99.90
27795;DHT22;15176;50.844;4.412;2023-03-14T13:53:54;10.70;99.90
27795;DHT22;15176;50.844;4.412;2023-03-14T13:56:42;10.70;99.90
27795;DHT22;15176;50.844;4.412;2023-03-14T13:59:27;10.90;99.90
27795;DHT22;15176;50.844;4.412;2023-03-14T14:01:54;10.60;99.90
27795;DHT22;15176;50.844;4.412;2023-03-14T14:04:23;10.90;99.90
27795;DHT22;15176;50.844;4.412;2023-03-14T14:06:59;10.90;99.90
27795;DHT22;15176;50.844;4.412;2023-03-14T14:10:22;10.50;99.90
27795;DHT22;15176;50.844;4.412;2023-03-14T14:12:47;10.40;99.90
27795;DHT22;15176;50.844;4.412;2023-03-14T14:15:30;10.70;99.90
27795;DHT22;15176;50.844;4.412;2023-03-14T14:18:03;11.10;99.90
27795;DHT22;15176;50.844;4.412;2023-03-14T14:20:35;10.80;99.90
27795;DHT22;15176;50.844;4.412;2023-03-14T14:23:04;11.30;99.90
27795;DHT22;15176;50.844;4.412;2023-03-14T14:25:30;11.60;99.90
27795;DHT22;15176;50.844;4.412;2023-03-14T14:27:56;11.10;99.90
27795;DHT22;15176;50.844;4.412;2023-03-14T14:30:29;11.10;99.90
27795;DHT22;15176;50.844;4.412;2023-03-14T14:33:20;11.10;99.90
27795;DHT22;15176;50.844;4.412;2023-03-14T14:35:51;10.80;99.90
27795;DHT22;15176;50.844;4.412;2023-03-14T14:38:18;10.60;99.90
27795;DHT22;15176;50.844;4.412;2023-03-14T14:40:47;10.50;99.90
27795;DHT22;15176;50.844;4.412;2023-03-14T14:43:27;10.60;99.90
27795;DHT22;15176;50.844;4.412;2023-03-14T14:45:55;10.30;99.90
27795;DHT22;15176;50.844;4.412;2023-03-14T14:48:30;10.40;99.90
27795;DHT22;15176;50.844;4.412;2023-03-14T14:51:04;10.80;99.90
27795;DHT22;15176;50.844;4.412;2023-03-14T14:53:35;10.50;99.90
27795;DHT22;15176;50.844;4.412;2023-03-14T14:56:24;10.10;99.90
27795;DHT22;15176;50.844;4.412;2023-03-14T14:58:59;10.00;99.90
27795;DHT22;15176;50.844;4.412;2023-03-14T15:01:35;9.30;99.90
27795;DHT22;15176;50.844;4.412;2023-03-14T15:04:03;9.60;99.90
27795;DHT22;15176;50.844;4.412;2023-03-14T15:06:35;9.30;99.90
27795;DHT22;15176;50.844;4.412;2023-03-14T15:09:04;9.30;99.90
27795;DHT22;15176;50.844;4.412;2023-03-14T15:11:30;9.00;99.90
27795;DHT22;15176;50.844;4.412;2023-03-14T15:13:57;9.10;99.90
27795;DHT22;15176;50.844;4.412;2023-03-14T15:16:27;9.30;99.90
27795;DHT22;15176;50.844;4.412;2023-03-14T15:18:55;9.90;99.90
27795;DHT22;15176;50.844;4.412;2023-03-14T15:21:22;10.50;99.90
27795;DHT22;15176;50.844;4.412;2023-03-14T15:23:51;10.70;98.60
27795;DHT22;15176;50.844;4.412;2023-03-14T15:26:21;10.80;99.10
27795;DHT22;15176;50.844;4.412;2023-03-14T15:28:48;11.30;99.70
27795;DHT22;15176;50.844;4.412;2023-03-14T15:31:21;11.80;99.90
27795;DHT22;15176;50.844;4.412;2023-03-14T15:33:47;11.70;93.40
27795;DHT22;15176;50.844;4.412;2023-03-14T15:36:21;11.90;95.40
27795;DHT22;15176;50.844;4.412;2023-03-14T15:38:48;12.40;94.50
27795;DHT22;15176;50.844;4.412;2023-03-14T15:41:14;12.60;96.50
27795;DHT22;15176;50.844;4.412;2023-03-14T15:43:41;12.00;90.80
27795;DHT22;15176;50.844;4.412;2023-03-14T15:46:11;11.90;91.30
27795;DHT22;15176;50.844;4.412;2023-03-14T15:48:38;11.90;91.40
27795;DHT22;15176;50.844;4.412;2023-03-14T15:51:05;12.10;91.50
27795;DHT22;15176;50.844;4.412;2023-03-14T15:53:31;11.90;92.70
27795;DHT22;15176;50.844;4.412;2023-03-14T15:55:56;12.10;92.00
27795;DHT22;15176;50.844;4.412;2023-03-14T15:58:22;11.90;92.40
27795;DHT22;15176;50.844;4.412;2023-03-14T16:00:49;12.00;89.50
27795;DHT22;15176;50.844;4.412;2023-03-14T16:03:15;11.70;92.80
27795;DHT22;15176;50.844;4.412;2023-03-14T16:05:41;11.60;90.20
27795;DHT22;15176;50.844;4.412;2023-03-14T16:08:07;11.90;91.70
27795;DHT22;15176;50.844;4.412;2023-03-14T16:10:33;11.60;89.10
27795;DHT22;15176;50.844;4.412;2023-03-14T16:12:59;11.60;88.10
27795;DHT22;15176;50.844;4.412;2023-03-14T16:15:30;11.60;89.80
27795;DHT22;15176;50.844;4.412;2023-03-14T16:18:04;11.60;90.80
27795;DHT22;15176;50.844;4.412;2023-03-14T16:20:30;11.80;92.60
27795;DHT22;15176;50.844;4.412;2023-03-14T16:22:55;11.40;88.90
27795;DHT22;15176;50.844;4.412;2023-03-14T16:25:21;11.20;91.10
27795;DHT22;15176;50.844;4.412;2023-03-14T16:27:47;11.30;95.20
27795;DHT22;15176;50.844;4.412;2023-03-14T16:30:13;11.30;91.10
27795;DHT22;15176;50.844;4.412;2023-03-14T16:32:39;11.20;97.60
27795;DHT22;15176;50.844;4.412;2023-03-14T16:35:05;11.70;97.20
27795;DHT22;15176;50.844;4.412;2023-03-14T16:37:31;11.80;92.10
27795;DHT22;15176;50.844;4.412;2023-03-14T16:39:57;11.70;92.70
27795;DHT22;15176;50.844;4.412;2023-03-14T16:42:23;11.80;93.40
27795;DHT22;15176;50.844;4.412;2023-03-14T16:44:49;11.70;91.90
27795;DHT22;15176;50.844;4.412;2023-03-14T16:47:15;11.50;92.40
27795;DHT22;15176;50.844;4.412;2023-03-14T16:49:52;11.30;92.50
27795;DHT22;15176;50.844;4.412;2023-03-14T16:52:19;11.60;93.60
27795;DHT22;15176;50.844;4.412;2023-03-14T16:54:45;11.30;92.70
27795;DHT22;15176;50.844;4.412;2023-03-14T16:57:10;11.30;92.70
27795;DHT22;15176;50.844;4.412;2023-03-14T16:59:36;11.40;93.90
27795;DHT22;15176;50.844;4.412;2023-03-14T17:02:09;11.20;93.80
27795;DHT22;15176;50.844;4.412;2023-03-14T17:04:40;11.00;94.20
27795;DHT22;15176;50.844;4.412;2023-03-14T17:07:07;10.90;94.10
27795;DHT22;15176;50.844;4.412;2023-03-14T17:09:33;10.70;95.80
27795;DHT22;15176;50.844;4.412;2023-03-14T17:11:58;11.10;94.80